Orion Township, Michigan
Current Conditions -  °F | °C
As of 9:03 PM on Monday 20 Oct 2014 (Local Time) from KPTK Reporting Station
Light Rain Light Rain  
Wind Chill: 51°   Ceiling: 2100
Heat Index: 51°   Visibility: 3mi
Dew Point: 49°   Wind: 9mph
Humidity: 92%   Direction: 340°NNW
Pressure: 29.84"   Gusts: NA
Location:  42.7458°N, 83.2617°W
Report Text: KPTK 210103Z 34008KT 3SM -RA BR FEW014 BKN021 OVC050 11/09 A2984 RMK AO2 P0003 T01060094
Loading
Personal Weather Stations






























Interactive Weather Map
Tropical Storm Tracking
New forecast layout! Learn more

10-Day Weather Forecast

Advertisements
Track Severe Weather on mobile